WetterOnline ( https://www.wetteronline.ch )

Wetter aktuell Cuxhaven

Aktuelles Wetter: Cuxhaven (12m)

6-stündlich | Neueste Meldungen
Ortszeit Temperatur Wetter
Do, 09.07. 20:00 14.8° C bedeckt
Do, 09.07. 14:00 12.1° C Sprühregen
Do, 09.07. 8:00 12.7° C leichter Regen
Do, 09.07. 2:00 13.0° C bedeckt
Mi, 08.07. 20:00 15.2° C leicht bewölkt
Mi, 08.07. 14:00 16.2° C wolkig
Mi, 08.07. 8:00 13.9° C leicht bewölkt
Mi, 08.07. 2:00 12.1° C bedeckt
Ortszeit Temperatur Wetter
Fr, 10.07. 1:30 14.4° C bewölkt
Fr, 10.07. 1:20 14.4° C bewölkt
Fr, 10.07. 1:10 14.4° C bewölkt
Fr, 10.07. 1:00 14.6° C bedeckt
Fr, 10.07. 0:50 14.6° C bedeckt
Fr, 10.07. 0:40 14.6° C bedeckt
Fr, 10.07. 0:30 14.6° C bedeckt
Fr, 10.07. 0:00 14.7° C bedeckt
Ortszeit Relative Feuchte Sichtweite
Do, 09.07. 20:00 74% >70 km
Do, 09.07. 14:00 95% 30 km
Do, 09.07. 8:00 82% 29 km
Do, 09.07. 2:00 76% 55 km
Mi, 08.07. 20:00 65% >70 km
Mi, 08.07. 14:00 65% 55 km
Mi, 08.07. 8:00 88% 40 km
Mi, 08.07. 2:00 94% 30 km
Ortszeit Relative Feuchte Sichtweite
Fr, 10.07. 1:30 74% 60 km
Fr, 10.07. 1:20 74% -
Fr, 10.07. 1:10 74% -
Fr, 10.07. 1:00 72% 60 km
Fr, 10.07. 0:50 72% -
Fr, 10.07. 0:40 72% -
Fr, 10.07. 0:30 74% 65 km
Fr, 10.07. 0:00 70% >70 km
Ortszeit Niederschlagsmenge Niederschlagsart
Do, 09.07. 20:00 10 l/m2 in 12 Std. Regen
Do, 09.07. 14:00 10 l/m2 in 6 Std. Regen
Do, 09.07. 8:00 0.2 l/m2 in 12 Std. Regen
Do, 09.07. 2:00 0.0 l/m2 in 6 Std. -
Mi, 08.07. 20:00 0.1 l/m2 in 12 Std. -
Mi, 08.07. 14:00 0.1 l/m2 in 6 Std. Regen
Mi, 08.07. 8:00 5 l/m2 in 12 Std. Regen
Mi, 08.07. 2:00 4 l/m2 in 6 Std. Regen
Ortszeit Niederschlagsmenge Niederschlagsart
Fr, 10.07. 1:30 0.0 l/m2 in 1 Std. -
Fr, 10.07. 1:20 keine Meldung -
Fr, 10.07. 1:10 keine Meldung -
Fr, 10.07. 1:00 0.0 l/m2 in 1 Std. -
Fr, 10.07. 0:50 keine Meldung -
Fr, 10.07. 0:40 keine Meldung -
Fr, 10.07. 0:30 0.0 l/m2 in 1 Std. -
Fr, 10.07. 0:00 0.0 l/m2 in 1 Std. -
Ortszeit Stärke Spitze Richtung
km/h Bft. km/h Grad Sektor
Do, 09.07. 20:00 9 2 26 50° NO
Do, 09.07. 14:00 19 3 35 70° O
Do, 09.07. 8:00 13 3 22 130° SO
Do, 09.07. 2:00 7 2 22 260° W
Mi, 08.07. 20:00 18 3 32 310° NW
Mi, 08.07. 14:00 18 3 32 300° NW
Mi, 08.07. 8:00 7 2 32 230° SW
Mi, 08.07. 2:00 13 3 39 250° W
Ortszeit Stärke Spitze Richtung
km/h Bft. km/h Grad Sektor
Fr, 10.07. 1:30 14 3 22 70° O
Fr, 10.07. 1:20 14 3 - 70° O
Fr, 10.07. 1:10 14 3 - 70° O
Fr, 10.07. 1:00 14 3 18 60° NO
Fr, 10.07. 0:50 14 3 - 60° NO
Fr, 10.07. 0:40 14 3 - 60° NO
Fr, 10.07. 0:30 13 3 19 60° NO
Fr, 10.07. 0:00 13 3 19 90° O
Ortszeit Untergrenze Bedeckung Gattung
total tief tief mittel hoch
Do, 09.07. 20:00 600 m 8/8 8/8 - - -
Do, 09.07. 14:00 210 m 8/8 8/8 - - -
Do, 09.07. 8:00 900 m 8/8 8/8 - - -
Do, 09.07. 2:00 4800 m 8/8 8/8 - - -
Mi, 08.07. 20:00 8400 m 6/8 0/8 - - -
Mi, 08.07. 14:00 780 m 6/8 7/8 - - -
Mi, 08.07. 8:00 2100 m 4/8 5/8 - - -
Mi, 08.07. 2:00 720 m 8/8 8/8 - - -
Ortszeit Bedeckungsgrad in Achtel und Wolkenuntergrenze
Fr, 10.07. 1:30 7(1440m) 7(1500m)
Fr, 10.07. 1:20 7(1440m) 7(1500m)
Fr, 10.07. 1:10 7(1380m) 7(1500m)
Fr, 10.07. 1:00 2(1110m) 7(1380m) 8(1500m)
Fr, 10.07. 0:50 2(1110m) 7(1380m) 8(1500m)
Fr, 10.07. 0:40 4(1110m) 7(1410m) 8(1500m)
Fr, 10.07. 0:30 5(1110m) 8(1800m) 8(1800m)
Fr, 10.07. 0:00 1(1110m) 8(1800m)
Ortszeit Luftdruck NN (hPa) Tendenz (hPa in 3 Std.)
Do, 09.07. 20:00 1012 - 0,2
Do, 09.07. 14:00 1012 - 1,1
Do, 09.07. 8:00 1014 - 0,8
Do, 09.07. 2:00 1016 - 0,5
Mi, 08.07. 20:00 1016 0,0
Mi, 08.07. 14:00 1015 + 0,7
Mi, 08.07. 8:00 1014 - 0,3
Mi, 08.07. 2:00 1015 - 0,5
Ortszeit Luftdruck NN (hPa) Tendenz (hPa in 3 Std.)
Fr, 10.07. 1:30 1011 - 0,8
Fr, 10.07. 1:20 1011 keine Meldung
Fr, 10.07. 1:10 1011 keine Meldung
Fr, 10.07. 1:00 1011 - 0,5
Fr, 10.07. 0:50 1011 keine Meldung
Fr, 10.07. 0:40 1011 keine Meldung
Fr, 10.07. 0:30 1012 - 0,5
Fr, 10.07. 0:00 1011 - 0,3
Ortszeit Schneehöhe (cm)
Do, 09.07. 20:00 -
Do, 09.07. 14:00 -
Do, 09.07. 8:00 -
Do, 09.07. 2:00 -
Mi, 08.07. 20:00 -
Mi, 08.07. 14:00 -
Mi, 08.07. 8:00 -
Mi, 08.07. 2:00 -
Ortszeit Schneehöhe (cm)
Fr, 10.07. 1:30 -
Fr, 10.07. 1:20 -
Fr, 10.07. 1:10 -
Fr, 10.07. 1:00 -
Fr, 10.07. 0:50 -
Fr, 10.07. 0:40 -
Fr, 10.07. 0:30 -
Fr, 10.07. 0:00 -
Link zu dieser Seite / Seite empfehlen

Das Wetter in ...